createdAt,value
2019-02-11T00:01:15.647Z,3.50
2019-02-11T00:03:42.558Z,3.50
2019-02-11T00:06:09.480Z,3.40
2019-02-11T00:08:36.342Z,3.40
2019-02-11T00:11:03.347Z,3.40
2019-02-11T00:13:30.274Z,3.40
2019-02-11T00:15:57.246Z,3.50
2019-02-11T00:18:24.137Z,3.50
2019-02-11T00:20:50.948Z,3.50
2019-02-11T00:23:17.794Z,3.50
2019-02-11T00:25:44.609Z,3.50
2019-02-11T00:28:11.441Z,3.50
2019-02-11T00:30:38.283Z,3.50
2019-02-11T00:33:05.116Z,3.40
2019-02-11T00:35:31.943Z,3.40
2019-02-11T00:37:58.873Z,3.40
2019-02-11T00:40:25.762Z,3.50
2019-02-11T00:42:52.586Z,3.40
2019-02-11T00:45:19.545Z,3.50
2019-02-11T00:47:46.378Z,3.40
2019-02-11T00:50:13.227Z,3.40
2019-02-11T00:52:40.077Z,3.50
2019-02-11T00:55:06.974Z,3.50
2019-02-11T00:57:33.786Z,3.50
2019-02-11T01:00:00.738Z,3.50
2019-02-11T01:02:27.550Z,3.50
2019-02-11T01:04:54.374Z,3.50
2019-02-11T01:07:21.394Z,3.50
2019-02-11T01:09:48.305Z,3.50
2019-02-11T01:12:15.198Z,3.60
2019-02-11T01:14:42.045Z,3.60
2019-02-11T01:17:09.078Z,3.60
2019-02-11T01:19:35.902Z,3.60
2019-02-11T01:22:02.854Z,3.60
2019-02-11T01:24:29.658Z,3.70
2019-02-11T01:26:58.893Z,3.60
2019-02-11T01:29:25.740Z,3.70
2019-02-11T01:31:52.658Z,3.70
2019-02-11T01:34:19.466Z,3.70
2019-02-11T01:36:46.333Z,3.70
2019-02-11T01:39:13.230Z,3.80
2019-02-11T01:41:40.029Z,3.90
2019-02-11T01:44:06.878Z,3.90
2019-02-11T01:46:37.271Z,3.90
2019-02-11T01:49:04.098Z,3.90
2019-02-11T01:51:30.937Z,3.90
2019-02-11T01:53:57.734Z,4.00
2019-02-11T01:56:24.668Z,3.90
2019-02-11T01:58:53.946Z,4.00
2019-02-11T02:01:20.749Z,3.90
2019-02-11T02:03:49.795Z,4.00
2019-02-11T02:06:16.647Z,4.00
2019-02-11T02:08:43.461Z,3.90
2019-02-11T02:11:10.274Z,3.80
2019-02-11T02:13:44.633Z,3.70
2019-02-11T02:16:06.047Z,3.60
2019-02-11T02:18:32.876Z,3.60
2019-02-11T02:20:59.730Z,3.50
2019-02-11T02:23:26.626Z,3.50
2019-02-11T02:25:53.412Z,3.50
2019-02-11T02:28:20.250Z,3.50
2019-02-11T02:30:47.154Z,3.50
2019-02-11T02:33:13.972Z,3.50
2019-02-11T02:35:40.957Z,3.50
2019-02-11T02:38:07.779Z,3.40
2019-02-11T02:40:34.700Z,3.40
2019-02-11T02:43:01.543Z,3.40
2019-02-11T02:45:28.360Z,3.40
2019-02-11T02:47:55.275Z,3.40
2019-02-11T02:50:22.399Z,3.30
2019-02-11T02:52:49.208Z,3.30
2019-02-11T02:55:15.994Z,3.20
2019-02-11T02:57:42.929Z,3.10
2019-02-11T03:00:10.350Z,3.00
2019-02-11T03:02:37.314Z,3.00
2019-02-11T03:05:04.850Z,2.90
2019-02-11T03:07:31.666Z,2.80
2019-02-11T03:09:58.487Z,2.70
2019-02-11T03:12:25.538Z,2.60
2019-02-11T03:14:52.349Z,2.60
2019-02-11T03:17:19.262Z,2.50
2019-02-11T03:19:46.106Z,2.50
2019-02-11T03:22:13.026Z,2.50
2019-02-11T03:24:39.845Z,2.40
2019-02-11T03:27:06.680Z,2.50
2019-02-11T03:29:33.817Z,2.50
2019-02-11T03:32:00.621Z,2.50
2019-02-11T03:34:27.574Z,2.50
2019-02-11T03:36:54.375Z,2.50
2019-02-11T03:39:21.214Z,2.50
2019-02-11T03:41:48.255Z,2.50
2019-02-11T03:44:15.444Z,2.50
2019-02-11T03:46:42.391Z,2.50
2019-02-11T03:49:09.260Z,2.50
2019-02-11T03:51:36.295Z,2.50
2019-02-11T03:54:03.605Z,2.60
2019-02-11T03:56:31.954Z,2.60
2019-02-11T03:58:58.766Z,2.60
2019-02-11T04:01:25.793Z,2.60
2019-02-11T04:03:52.746Z,2.70
2019-02-11T04:06:19.632Z,2.70
2019-02-11T04:08:46.431Z,2.70
2019-02-11T04:11:13.367Z,2.80
2019-02-11T04:13:40.161Z,2.80
2019-02-11T04:16:06.960Z,2.80
2019-02-11T04:18:33.886Z,2.80
2019-02-11T04:21:00.689Z,2.80
2019-02-11T04:23:27.541Z,2.90
2019-02-11T04:25:54.377Z,2.80
2019-02-11T04:28:21.218Z,2.90
2019-02-11T04:30:48.027Z,2.90
2019-02-11T04:33:14.890Z,2.90
2019-02-11T04:35:41.728Z,2.90
2019-02-11T04:38:08.547Z,2.90
2019-02-11T04:40:35.404Z,2.90
2019-02-11T04:43:02.202Z,3.00
2019-02-11T04:45:28.997Z,3.00
2019-02-11T04:47:55.851Z,3.00
2019-02-11T04:50:24.423Z,3.00
2019-02-11T04:52:51.306Z,3.00
2019-02-11T04:55:18.148Z,3.10
2019-02-11T04:57:45.036Z,3.00
2019-02-11T05:00:12.071Z,3.10
2019-02-11T05:02:39.106Z,3.10
2019-02-11T05:05:06.975Z,3.10
2019-02-11T05:07:33.782Z,3.10
2019-02-11T05:10:00.633Z,3.20
2019-02-11T05:12:27.426Z,3.20
2019-02-11T05:14:54.222Z,3.30
2019-02-11T05:17:21.287Z,3.20
2019-02-11T05:19:48.181Z,3.20
2019-02-11T05:22:15.004Z,3.30
2019-02-11T05:24:41.946Z,3.30
2019-02-11T05:27:08.751Z,3.30
2019-02-11T05:29:35.547Z,3.30
2019-02-11T05:32:02.595Z,3.40
2019-02-11T05:34:29.411Z,3.40
2019-02-11T05:36:56.227Z,3.40
2019-02-11T05:39:23.058Z,3.40
2019-02-11T05:41:49.875Z,3.50
2019-02-11T05:44:16.791Z,3.50
2019-02-11T05:46:43.642Z,3.50
2019-02-11T05:49:10.493Z,3.50
2019-02-11T05:51:37.353Z,3.50
2019-02-11T05:54:04.293Z,3.60
2019-02-11T05:56:31.198Z,3.60
2019-02-11T05:58:58.013Z,3.60
2019-02-11T06:01:24.960Z,3.60
2019-02-11T06:03:51.749Z,3.60
2019-02-11T06:06:18.562Z,3.60
2019-02-11T06:08:45.415Z,3.60
2019-02-11T06:11:12.398Z,3.60
2019-02-11T06:13:39.198Z,3.60
2019-02-11T06:16:06.065Z,3.60
2019-02-11T06:18:32.962Z,3.60
2019-02-11T06:20:59.766Z,3.60
2019-02-11T06:23:26.708Z,3.60
2019-02-11T06:25:53.500Z,3.60
2019-02-11T06:28:20.318Z,3.50
2019-02-11T06:30:47.150Z,3.50
2019-02-11T06:33:13.950Z,3.40
2019-02-11T06:35:40.755Z,3.40
2019-02-11T06:38:07.672Z,3.30
2019-02-11T06:40:34.694Z,3.30
2019-02-11T06:43:01.597Z,3.30
2019-02-11T06:45:28.549Z,3.30
2019-02-11T06:47:55.362Z,3.30
2019-02-11T06:50:22.178Z,3.30
2019-02-11T06:52:49.000Z,3.30
2019-02-11T06:55:15.793Z,3.30
2019-02-11T06:57:42.705Z,3.30
2019-02-11T07:00:10.657Z,3.30
2019-02-11T07:02:37.585Z,3.30
2019-02-11T07:05:04.914Z,3.30
2019-02-11T07:07:31.766Z,3.30
2019-02-11T07:09:58.575Z,3.30
2019-02-11T07:12:25.391Z,3.30
2019-02-11T07:14:52.223Z,3.30
2019-02-11T07:17:19.034Z,3.30
2019-02-11T07:19:45.825Z,3.40
2019-02-11T07:22:12.667Z,3.30
2019-02-11T07:24:39.462Z,3.30
2019-02-11T07:27:06.485Z,3.30
2019-02-11T07:29:33.350Z,3.30
2019-02-11T07:32:00.175Z,3.20
2019-02-11T07:34:26.973Z,3.20
2019-02-11T07:36:53.876Z,3.20
2019-02-11T07:39:21.179Z,3.20
2019-02-11T07:42:13.383Z,3.20
2019-02-11T07:44:46.630Z,3.20
2019-02-11T07:47:13.550Z,3.20
2019-02-11T07:49:40.766Z,3.20
2019-02-11T07:52:07.598Z,3.20
2019-02-11T07:54:34.395Z,3.20
2019-02-11T07:57:01.244Z,3.10
2019-02-11T07:59:28.263Z,3.10
2019-02-11T08:01:55.053Z,3.10
2019-02-11T08:04:21.898Z,3.10
2019-02-11T08:06:48.731Z,3.10
2019-02-11T08:09:15.518Z,3.10
2019-02-11T08:11:42.479Z,3.10
2019-02-11T08:14:09.391Z,3.10
2019-02-11T08:16:36.219Z,3.10
2019-02-11T08:19:03.268Z,3.10
2019-02-11T08:21:30.080Z,3.00
2019-02-11T08:23:56.874Z,3.10
2019-02-11T08:26:23.801Z,3.10
2019-02-11T08:28:50.591Z,3.10
2019-02-11T08:31:17.481Z,3.10
2019-02-11T08:33:44.343Z,3.10
2019-02-11T08:36:11.362Z,3.10
2019-02-11T08:38:38.179Z,3.10
2019-02-11T08:41:05.673Z,3.20
2019-02-11T08:43:32.478Z,3.20
2019-02-11T08:45:59.288Z,3.20
2019-02-11T08:48:27.302Z,3.20
2019-02-11T08:50:54.243Z,3.20
2019-02-11T08:53:21.062Z,3.20
2019-02-11T08:55:48.000Z,3.20
2019-02-11T08:58:14.874Z,3.20
2019-02-11T09:00:41.686Z,3.20
2019-02-11T09:03:08.611Z,3.20
2019-02-11T09:05:35.520Z,3.20
2019-02-11T09:08:02.543Z,3.20
2019-02-11T09:10:29.485Z,3.20
2019-02-11T09:12:56.275Z,3.20
2019-02-11T09:15:24.992Z,3.30
2019-02-11T09:17:51.834Z,3.30
2019-02-11T09:20:18.978Z,3.30
2019-02-11T09:22:45.795Z,3.40
2019-02-11T09:25:13.162Z,3.50
2019-02-11T09:27:40.102Z,3.50
2019-02-11T09:30:10.398Z,3.50
2019-02-11T09:32:37.221Z,3.60
2019-02-11T09:35:05.034Z,3.60
2019-02-11T09:37:31.958Z,3.60
2019-02-11T09:39:58.803Z,3.60
2019-02-11T09:42:25.601Z,3.70
2019-02-11T09:44:52.492Z,3.70
2019-02-11T09:47:19.422Z,3.80
2019-02-11T09:50:08.405Z,3.80
2019-02-11T09:52:35.341Z,3.80
2019-02-11T09:55:02.986Z,3.80
2019-02-11T09:57:29.806Z,3.80
2019-02-11T09:59:56.647Z,3.70
2019-02-11T10:02:23.457Z,3.70
2019-02-11T10:04:50.292Z,3.70
2019-02-11T10:07:17.229Z,3.70
2019-02-11T10:09:44.026Z,3.70
2019-02-11T10:12:10.930Z,3.70
2019-02-11T10:14:37.978Z,3.70
2019-02-11T10:17:05.074Z,3.70
2019-02-11T10:19:32.002Z,3.70
2019-02-11T10:21:58.906Z,3.60
2019-02-11T10:24:25.817Z,3.60
2019-02-11T10:26:52.730Z,3.60
2019-02-11T10:29:19.657Z,3.60
2019-02-11T10:31:46.462Z,3.60
2019-02-11T10:34:13.472Z,3.50
2019-02-11T10:36:40.534Z,3.50
2019-02-11T10:39:07.453Z,3.50
2019-02-11T10:41:34.374Z,3.50
2019-02-11T10:44:01.322Z,3.50
2019-02-11T10:46:28.229Z,3.50
2019-02-11T10:48:55.053Z,3.50
2019-02-11T10:51:22.110Z,3.50
2019-02-11T10:53:49.058Z,3.50
2019-02-11T10:56:15.862Z,3.50
2019-02-11T10:58:42.919Z,3.50
2019-02-11T11:01:09.822Z,3.50
2019-02-11T11:03:36.729Z,3.50
2019-02-11T11:06:03.745Z,3.40
2019-02-11T11:08:30.544Z,3.50
2019-02-11T11:10:57.433Z,3.50
2019-02-11T11:13:24.374Z,3.50
2019-02-11T11:15:51.488Z,3.50
2019-02-11T11:18:18.284Z,3.50
2019-02-11T11:20:45.350Z,3.50
2019-02-11T11:23:12.162Z,3.50
2019-02-11T11:25:39.214Z,3.60
2019-02-11T11:28:06.436Z,3.50
2019-02-11T11:30:33.550Z,3.50
2019-02-11T11:33:00.564Z,3.50
2019-02-11T11:35:27.602Z,3.50
2019-02-11T11:37:54.560Z,3.50
2019-02-11T11:40:21.466Z,3.50
2019-02-11T11:42:48.425Z,3.50
2019-02-11T11:45:16.471Z,3.50
2019-02-11T11:47:43.658Z,3.50
2019-02-11T11:50:10.845Z,3.40
2019-02-11T11:52:37.877Z,3.40
2019-02-11T11:55:07.028Z,3.40
2019-02-11T11:57:34.104Z,3.40
2019-02-11T12:00:01.099Z,3.40
2019-02-11T12:02:28.197Z,3.40
2019-02-11T12:04:55.149Z,3.40
2019-02-11T12:07:22.209Z,3.40
2019-02-11T12:09:49.395Z,3.40
2019-02-11T12:12:16.303Z,3.40
2019-02-11T12:14:43.177Z,3.40
2019-02-11T12:17:10.294Z,3.40
2019-02-11T12:19:37.257Z,3.40
2019-02-11T12:22:04.405Z,3.40
2019-02-11T12:24:31.445Z,3.50
2019-02-11T12:26:58.596Z,3.50
2019-02-11T12:29:25.502Z,3.50
2019-02-11T12:31:52.429Z,3.50
2019-02-11T12:34:19.576Z,3.60
2019-02-11T12:36:46.482Z,3.60
2019-02-11T12:39:13.396Z,3.60
2019-02-11T12:41:40.259Z,3.70
2019-02-11T12:44:07.147Z,3.60
2019-02-11T12:46:33.955Z,3.50
2019-02-11T12:49:01.846Z,3.60
2019-02-11T12:51:29.025Z,3.60
2019-02-11T12:53:55.936Z,3.60
2019-02-11T12:56:22.890Z,3.60
2019-02-11T12:58:49.798Z,3.60
2019-02-11T13:01:16.837Z,3.50
2019-02-11T13:03:43.900Z,3.50
2019-02-11T13:06:10.814Z,3.50
2019-02-11T13:08:37.618Z,3.60
2019-02-11T13:11:04.565Z,3.60
2019-02-11T13:13:31.473Z,3.50
2019-02-11T13:16:02.086Z,3.50
2019-02-11T13:18:27.488Z,3.50
2019-02-11T13:20:54.731Z,3.50
2019-02-11T13:23:21.712Z,3.50
2019-02-11T13:25:48.654Z,3.40
2019-02-11T13:28:15.471Z,3.40
2019-02-11T13:30:42.462Z,3.40
2019-02-11T13:33:09.482Z,3.40
2019-02-11T13:35:36.550Z,3.40
2019-02-11T13:38:03.363Z,3.40
2019-02-11T13:40:30.216Z,3.30
2019-02-11T13:42:57.012Z,3.30
2019-02-11T13:45:24.208Z,3.30
2019-02-11T13:47:56.093Z,3.40
2019-02-11T13:50:22.177Z,3.40
2019-02-11T13:52:50.119Z,3.50
2019-02-11T13:55:17.256Z,3.50
2019-02-11T13:57:44.363Z,3.60
2019-02-11T14:00:22.875Z,3.50
2019-02-11T14:02:51.847Z,3.50
2019-02-11T14:05:18.955Z,3.50
2019-02-11T14:07:45.993Z,3.50
2019-02-11T14:10:13.687Z,3.40
2019-02-11T14:12:40.607Z,3.40
2019-02-11T14:15:07.788Z,3.50
2019-02-11T14:17:34.676Z,3.40
2019-02-11T14:20:01.834Z,3.40
2019-02-11T14:22:28.986Z,3.40
2019-02-11T14:24:56.102Z,3.40
2019-02-11T14:27:23.122Z,3.40
2019-02-11T14:29:50.057Z,3.40
2019-02-11T14:32:17.068Z,3.40
2019-02-11T14:34:43.860Z,3.40
2019-02-11T14:37:10.821Z,3.40
2019-02-11T14:39:37.954Z,3.40
2019-02-11T14:42:05.415Z,3.40
2019-02-11T14:44:32.265Z,3.30
2019-02-11T14:46:59.153Z,3.40
2019-02-11T14:49:25.959Z,3.50
2019-02-11T14:51:53.017Z,3.40
2019-02-11T14:54:19.802Z,3.40
2019-02-11T14:56:46.598Z,3.30
2019-02-11T14:59:13.447Z,3.20
2019-02-11T15:01:40.266Z,3.20
2019-02-11T15:04:07.071Z,3.10
2019-02-11T15:06:33.927Z,3.10
2019-02-11T15:09:00.719Z,3.10
2019-02-11T15:11:27.650Z,3.00
2019-02-11T15:13:54.504Z,3.00
2019-02-11T15:16:21.430Z,3.00
2019-02-11T15:18:48.412Z,2.90
2019-02-11T15:21:15.251Z,2.90
2019-02-11T15:23:42.066Z,2.80
2019-02-11T15:26:08.897Z,2.80
2019-02-11T15:28:35.939Z,2.80
2019-02-11T15:31:02.841Z,2.70
2019-02-11T15:33:29.652Z,2.70
2019-02-11T15:35:56.530Z,2.70
2019-02-11T15:38:23.578Z,2.60
2019-02-11T15:40:50.382Z,2.60
2019-02-11T15:43:17.237Z,2.50
2019-02-11T15:45:44.144Z,2.50
2019-02-11T15:48:11.045Z,2.50
2019-02-11T15:50:37.890Z,2.40
2019-02-11T15:53:04.786Z,2.40
2019-02-11T15:55:31.614Z,2.40
2019-02-11T15:57:58.454Z,2.30
2019-02-11T16:00:25.251Z,2.30
2019-02-11T16:02:52.356Z,2.30
2019-02-11T16:05:19.463Z,2.30
2019-02-11T16:07:46.773Z,2.20
2019-02-11T16:10:15.759Z,2.10
2019-02-11T16:12:42.635Z,2.00
2019-02-11T16:15:09.583Z,2.10
2019-02-11T16:17:36.599Z,2.10
2019-02-11T16:20:10.278Z,2.10
2019-02-11T16:22:37.172Z,2.00
2019-02-11T16:25:05.147Z,2.00
2019-02-11T16:27:32.111Z,1.90
2019-02-11T16:29:59.003Z,1.90
2019-02-11T16:32:25.785Z,1.90
2019-02-11T16:34:53.556Z,1.90
2019-02-11T16:37:20.384Z,1.90
2019-02-11T16:39:47.225Z,1.90
2019-02-11T16:42:14.082Z,1.80
2019-02-11T16:44:40.982Z,1.80
2019-02-11T16:47:07.815Z,1.70
2019-02-11T16:49:34.650Z,1.70
2019-02-11T16:52:01.460Z,1.70
2019-02-11T16:54:28.274Z,1.70
2019-02-11T16:56:55.118Z,1.70
2019-02-11T16:59:21.955Z,1.80
2019-02-11T17:01:48.807Z,1.70
2019-02-11T17:04:15.670Z,1.70
2019-02-11T17:06:42.491Z,1.60
2019-02-11T17:09:09.402Z,1.60
2019-02-11T17:11:36.374Z,1.50
2019-02-11T17:14:03.393Z,1.60
2019-02-11T17:16:30.469Z,1.60
2019-02-11T17:18:57.517Z,1.60
2019-02-11T17:21:24.329Z,1.70
2019-02-11T17:23:51.334Z,1.60
2019-02-11T17:26:18.278Z,1.50
2019-02-11T17:28:45.287Z,1.50
2019-02-11T17:31:12.135Z,1.60
2019-02-11T17:33:38.986Z,1.60
2019-02-11T17:36:05.898Z,1.50
2019-02-11T17:38:32.802Z,1.60
2019-02-11T17:40:59.653Z,1.50
2019-02-11T17:43:26.467Z,1.50
2019-02-11T17:45:53.382Z,1.50
2019-02-11T17:48:21.165Z,1.60
2019-02-11T17:50:48.062Z,1.60
2019-02-11T17:53:15.399Z,1.60
2019-02-11T17:55:42.358Z,1.60
2019-02-11T17:58:09.259Z,1.60
2019-02-11T18:00:41.706Z,1.50
2019-02-11T18:03:08.662Z,1.50
2019-02-11T18:05:35.632Z,1.40
2019-02-11T18:08:02.808Z,1.40
2019-02-11T18:10:29.770Z,1.40
2019-02-11T18:12:56.680Z,1.50
2019-02-11T18:15:23.612Z,1.50
2019-02-11T18:17:50.658Z,1.50
2019-02-11T18:20:17.580Z,1.60
2019-02-11T18:22:44.494Z,1.60
2019-02-11T18:25:11.578Z,1.60
2019-02-11T18:27:38.530Z,1.50
2019-02-11T18:30:06.400Z,1.50
2019-02-11T18:32:33.354Z,1.40
2019-02-11T18:35:00.250Z,1.40
2019-02-11T18:37:27.269Z,1.50
2019-02-11T18:39:54.215Z,1.50
2019-02-11T18:42:21.006Z,1.50
2019-02-11T18:44:47.951Z,1.50
2019-02-11T18:47:14.824Z,1.50
2019-02-11T18:49:41.729Z,1.60
2019-02-11T18:52:09.103Z,1.60
2019-02-11T18:54:36.046Z,1.60
2019-02-11T18:57:03.073Z,1.60
2019-02-11T18:59:29.890Z,1.50
2019-02-11T19:01:56.842Z,1.50
2019-02-11T19:04:23.840Z,1.40
2019-02-11T19:06:50.726Z,1.30
2019-02-11T19:09:18.926Z,1.30
2019-02-11T19:11:45.951Z,1.30
2019-02-11T19:14:12.850Z,1.20
2019-02-11T19:16:39.732Z,1.20
2019-02-11T19:19:06.551Z,1.30
2019-02-11T19:21:33.354Z,1.40
2019-02-11T19:24:00.401Z,1.40
2019-02-11T19:26:27.318Z,1.40
2019-02-11T19:28:54.123Z,1.40
2019-02-11T19:31:20.974Z,1.40
2019-02-11T19:33:47.867Z,1.40
2019-02-11T19:36:14.783Z,1.30
2019-02-11T19:38:41.631Z,1.30
2019-02-11T19:41:08.529Z,1.40
2019-02-11T19:43:35.322Z,1.40
2019-02-11T19:46:02.426Z,1.50
2019-02-11T19:48:29.281Z,1.40
2019-02-11T19:50:56.188Z,1.40
2019-02-11T19:53:23.246Z,1.30
2019-02-11T19:55:50.158Z,1.30
2019-02-11T19:58:18.325Z,1.20
2019-02-11T20:00:45.290Z,1.20
2019-02-11T20:03:12.103Z,1.20
2019-02-11T20:05:38.910Z,1.20
2019-02-11T20:08:05.843Z,1.20
2019-02-11T20:10:32.646Z,1.20
2019-02-11T20:12:59.566Z,1.20
2019-02-11T20:15:26.679Z,1.20
2019-02-11T20:17:53.484Z,1.20
2019-02-11T20:20:20.996Z,1.20
2019-02-11T20:22:48.030Z,1.20
2019-02-11T20:25:15.027Z,1.20
2019-02-11T20:27:42.060Z,1.40
2019-02-11T20:30:11.569Z,1.40
2019-02-11T20:32:38.587Z,1.50
2019-02-11T20:35:05.774Z,1.50
2019-02-11T20:37:32.718Z,1.50
2019-02-11T20:40:03.481Z,1.50
2019-02-11T20:42:28.217Z,1.60
2019-02-11T20:44:55.062Z,1.50
2019-02-11T20:47:22.102Z,1.50
2019-02-11T20:49:49.123Z,1.50
2019-02-11T20:52:15.982Z,1.60
2019-02-11T20:54:42.770Z,1.50
2019-02-11T20:57:09.582Z,1.50
2019-02-11T20:59:36.525Z,1.50
2019-02-11T21:02:03.457Z,1.50
2019-02-11T21:04:30.387Z,1.40
2019-02-11T21:06:57.217Z,1.40
2019-02-11T21:09:24.121Z,1.40
2019-02-11T21:11:50.923Z,1.40
2019-02-11T21:14:17.893Z,1.40
2019-02-11T21:16:44.725Z,1.40
2019-02-11T21:19:11.639Z,1.40
2019-02-11T21:21:38.492Z,1.40
2019-02-11T21:24:05.294Z,1.40
2019-02-11T21:26:32.358Z,1.40
2019-02-11T21:28:59.431Z,1.40
2019-02-11T21:31:26.226Z,1.40
2019-02-11T21:33:53.042Z,1.30
2019-02-11T21:36:19.970Z,1.40
2019-02-11T21:38:46.978Z,1.40
2019-02-11T21:41:13.885Z,1.40
2019-02-11T21:43:40.740Z,1.40
2019-02-11T21:46:07.530Z,1.40
2019-02-11T21:48:34.434Z,1.40
2019-02-11T21:51:01.389Z,1.40
2019-02-11T21:53:28.200Z,1.40
2019-02-11T21:55:55.106Z,1.40
2019-02-11T21:58:22.068Z,1.40
2019-02-11T22:00:49.101Z,1.50
2019-02-11T22:03:15.919Z,1.40
2019-02-11T22:05:42.962Z,1.40
2019-02-11T22:08:10.158Z,1.50
2019-02-11T22:10:36.965Z,1.50
2019-02-11T22:13:03.897Z,1.50
2019-02-11T22:15:30.725Z,1.50
2019-02-11T22:17:57.527Z,1.60
2019-02-11T22:20:24.371Z,1.60
2019-02-11T22:22:51.262Z,1.70
2019-02-11T22:25:18.060Z,1.70
2019-02-11T22:27:44.910Z,1.70
2019-02-11T22:30:20.381Z,1.60
2019-02-11T22:32:47.331Z,1.60
2019-02-11T22:35:14.154Z,1.60
2019-02-11T22:37:41.000Z,1.60
2019-02-11T22:40:08.427Z,1.70
2019-02-11T22:42:35.328Z,1.80
2019-02-11T22:45:02.323Z,1.70
2019-02-11T22:47:29.238Z,1.70
2019-02-11T22:49:56.128Z,1.70
2019-02-11T22:52:22.930Z,1.70
2019-02-11T22:54:49.776Z,1.70
2019-02-11T22:57:16.579Z,1.80
2019-02-11T22:59:43.391Z,1.80
2019-02-11T23:02:10.459Z,1.70
2019-02-11T23:04:37.242Z,1.80
2019-02-11T23:07:04.247Z,1.90
2019-02-11T23:09:31.077Z,1.80
2019-02-11T23:11:57.987Z,1.80
2019-02-11T23:14:25.193Z,1.90
2019-02-11T23:16:52.014Z,2.00
2019-02-11T23:19:18.806Z,2.00
2019-02-11T23:21:45.614Z,2.00
2019-02-11T23:24:12.581Z,2.00
2019-02-11T23:26:39.378Z,2.00
2019-02-11T23:29:06.379Z,2.00
2019-02-11T23:31:33.414Z,2.00
2019-02-11T23:34:00.317Z,1.90
2019-02-11T23:36:27.342Z,1.90
2019-02-11T23:38:54.173Z,1.90
2019-02-11T23:41:21.201Z,1.90
2019-02-11T23:43:48.201Z,1.90
2019-02-11T23:46:15.039Z,1.90
2019-02-11T23:48:41.821Z,2.00
2019-02-11T23:51:08.628Z,2.00
2019-02-11T23:53:35.468Z,2.00
2019-02-11T23:56:02.366Z,1.90
2019-02-11T23:58:29.469Z,1.90
